sensor_id;sensor_type;location;lat;lon;timestamp;noise_LAeq;noise_LA_min;noise_LA_max;noise_LA01;noise_LA95
74214;Laerm;62576;55.694;37.494;2023-02-28T00:01:34;59.99;53.55;78.33;;
74214;Laerm;62576;55.694;37.494;2023-02-28T00:04:04;57.83;53.67;76.28;;
74214;Laerm;62576;55.694;37.494;2023-02-28T00:06:36;57.69;53.37;72.62;;
74214;Laerm;62576;55.694;37.494;2023-02-28T00:09:06;61.42;53.33;76.29;;
74214;Laerm;62576;55.694;37.494;2023-02-28T00:11:36;59.00;53.11;71.74;;
74214;Laerm;62576;55.694;37.494;2023-02-28T00:14:06;62.10;53.01;85.74;;
74214;Laerm;62576;55.694;37.494;2023-02-28T00:16:36;63.70;54.20;83.24;;
74214;Laerm;62576;55.694;37.494;2023-02-28T00:19:06;60.99;53.20;86.17;;
74214;Laerm;62576;55.694;37.494;2023-02-28T00:21:38;59.14;52.63;76.61;;
74214;Laerm;62576;55.694;37.494;2023-02-28T00:24:09;59.35;53.31;77.43;;
74214;Laerm;62576;55.694;37.494;2023-02-28T00:26:41;59.68;52.96;79.90;;
74214;Laerm;62576;55.694;37.494;2023-02-28T00:29:10;59.50;53.19;79.39;;
74214;Laerm;62576;55.694;37.494;2023-02-28T00:31:40;60.52;53.26;82.69;;
74214;Laerm;62576;55.694;37.494;2023-02-28T00:34:10;61.70;53.07;80.58;;
74214;Laerm;62576;55.694;37.494;2023-02-28T00:36:42;58.27;53.12;67.48;;
74214;Laerm;62576;55.694;37.494;2023-02-28T00:39:14;59.04;52.74;77.07;;
74214;Laerm;62576;55.694;37.494;2023-02-28T00:41:47;57.20;52.74;72.42;;
74214;Laerm;62576;55.694;37.494;2023-02-28T00:44:17;57.33;53.30;74.72;;
74214;Laerm;62576;55.694;37.494;2023-02-28T00:46:49;59.19;53.22;82.13;;
74214;Laerm;62576;55.694;37.494;2023-02-28T00:49:20;55.45;53.16;62.33;;
74214;Laerm;62576;55.694;37.494;2023-02-28T00:51:52;57.44;53.39;77.76;;
74214;Laerm;62576;55.694;37.494;2023-02-28T00:54:22;59.46;53.78;70.37;;
74214;Laerm;62576;55.694;37.494;2023-02-28T00:56:52;60.40;53.96;75.52;;
74214;Laerm;62576;55.694;37.494;2023-02-28T00:59:23;60.26;54.80;67.78;;
74214;Laerm;62576;55.694;37.494;2023-02-28T01:01:53;57.24;53.57;74.48;;
74214;Laerm;62576;55.694;37.494;2023-02-28T01:04:23;56.14;53.26;64.31;;
74214;Laerm;62576;55.694;37.494;2023-02-28T01:06:54;57.79;52.84;81.03;;
74214;Laerm;62576;55.694;37.494;2023-02-28T01:09:24;56.09;52.56;72.91;;
74214;Laerm;62576;55.694;37.494;2023-02-28T01:11:54;55.91;53.12;65.36;;
74214;Laerm;62576;55.694;37.494;2023-02-28T01:14:24;56.27;53.18;70.29;;
74214;Laerm;62576;55.694;37.494;2023-02-28T01:16:54;56.46;53.20;63.61;;
74214;Laerm;62576;55.694;37.494;2023-02-28T01:19:25;56.03;53.27;66.63;;
74214;Laerm;62576;55.694;37.494;2023-02-28T01:21:56;59.83;54.04;70.70;;
74214;Laerm;62576;55.694;37.494;2023-02-28T01:24:26;57.14;53.31;64.61;;
74214;Laerm;62576;55.694;37.494;2023-02-28T01:26:56;57.55;53.21;70.27;;
74214;Laerm;62576;55.694;37.494;2023-02-28T01:29:26;59.23;53.07;73.73;;
74214;Laerm;62576;55.694;37.494;2023-02-28T01:31:56;57.88;53.27;70.64;;
74214;Laerm;62576;55.694;37.494;2023-02-28T01:34:28;60.18;53.83;71.54;;
74214;Laerm;62576;55.694;37.494;2023-02-28T01:36:59;64.08;53.25;95.07;;
74214;Laerm;62576;55.694;37.494;2023-02-28T01:39:29;58.00;53.21;77.38;;
74214;Laerm;62576;55.694;37.494;2023-02-28T01:41:59;56.89;53.30;75.90;;
74214;Laerm;62576;55.694;37.494;2023-02-28T01:45:02;58.71;53.60;74.23;;
74214;Laerm;62576;55.694;37.494;2023-02-28T01:47:36;57.77;53.50;65.30;;
74214;Laerm;62576;55.694;37.494;2023-02-28T01:50:07;62.81;53.08;85.38;;
74214;Laerm;62576;55.694;37.494;2023-02-28T01:52:41;56.41;53.36;64.80;;
74214;Laerm;62576;55.694;37.494;2023-02-28T01:55:12;57.45;53.49;65.97;;
74214;Laerm;62576;55.694;37.494;2023-02-28T01:57:46;58.01;53.40;66.63;;
74214;Laerm;62576;55.694;37.494;2023-02-28T02:00:20;55.48;53.31;73.61;;
74214;Laerm;62576;55.694;37.494;2023-02-28T02:02:52;59.26;53.72;68.30;;
74214;Laerm;62576;55.694;37.494;2023-02-28T02:05:25;60.82;53.87;82.52;;
74214;Laerm;62576;55.694;37.494;2023-02-28T02:08:02;58.94;53.96;75.16;;
74214;Laerm;62576;55.694;37.494;2023-02-28T02:10:35;57.35;53.56;77.08;;
74214;Laerm;62576;55.694;37.494;2023-02-28T02:13:13;57.90;53.54;71.64;;
74214;Laerm;62576;55.694;37.494;2023-02-28T02:15:53;57.78;53.91;70.80;;
74214;Laerm;62576;55.694;37.494;2023-02-28T02:18:29;58.19;53.36;72.94;;
74214;Laerm;62576;55.694;37.494;2023-02-28T02:24:44;62.25;53.36;89.39;;
74214;Laerm;62576;55.694;37.494;2023-02-28T02:27:20;58.76;53.64;75.34;;
74214;Laerm;62576;55.694;37.494;2023-02-28T02:29:57;57.69;53.80;69.67;;
74214;Laerm;62576;55.694;37.494;2023-02-28T02:32:49;63.34;53.64;87.19;;
74214;Laerm;62576;55.694;37.494;2023-02-28T02:35:31;61.36;53.83;83.81;;
74214;Laerm;62576;55.694;37.494;2023-02-28T02:38:10;61.64;54.01;77.43;;
74214;Laerm;62576;55.694;37.494;2023-02-28T02:40:49;61.36;54.30;86.10;;
74214;Laerm;62576;55.694;37.494;2023-02-28T02:43:25;62.86;53.85;87.33;;
74214;Laerm;62576;55.694;37.494;2023-02-28T02:46:02;59.50;53.83;71.90;;
74214;Laerm;62576;55.694;37.494;2023-02-28T02:48:36;59.28;53.96;70.50;;
74214;Laerm;62576;55.694;37.494;2023-02-28T02:51:14;61.87;54.09;79.93;;
74214;Laerm;62576;55.694;37.494;2023-02-28T02:53:47;61.09;54.19;85.11;;
74214;Laerm;62576;55.694;37.494;2023-02-28T02:56:21;59.78;53.68;80.76;;
74214;Laerm;62576;55.694;37.494;2023-02-28T02:58:57;59.62;54.53;78.56;;
74214;Laerm;62576;55.694;37.494;2023-02-28T03:01:31;60.22;53.37;74.62;;
74214;Laerm;62576;55.694;37.494;2023-02-28T03:04:16;60.45;55.00;73.98;;
74214;Laerm;62576;55.694;37.494;2023-02-28T03:06:50;60.78;54.81;79.23;;
74214;Laerm;62576;55.694;37.494;2023-02-28T03:09:23;59.55;54.17;75.40;;
74214;Laerm;62576;55.694;37.494;2023-02-28T03:11:55;60.88;54.43;68.37;;
74214;Laerm;62576;55.694;37.494;2023-02-28T03:14:32;61.64;54.59;79.05;;
74214;Laerm;62576;55.694;37.494;2023-02-28T03:17:24;62.22;54.56;84.00;;
74214;Laerm;62576;55.694;37.494;2023-02-28T03:20:03;62.62;56.53;70.52;;
74214;Laerm;62576;55.694;37.494;2023-02-28T03:22:50;61.13;54.40;70.44;;
74214;Laerm;62576;55.694;37.494;2023-02-28T03:25:29;62.22;54.67;78.06;;
74214;Laerm;62576;55.694;37.494;2023-02-28T03:28:06;60.24;54.82;70.40;;
74214;Laerm;62576;55.694;37.494;2023-02-28T03:30:42;61.97;54.82;69.82;;
74214;Laerm;62576;55.694;37.494;2023-02-28T03:33:19;61.46;54.55;74.68;;
74214;Laerm;62576;55.694;37.494;2023-02-28T03:35:54;59.48;54.69;66.55;;
74214;Laerm;62576;55.694;37.494;2023-02-28T03:38:27;62.78;55.89;75.41;;
74214;Laerm;62576;55.694;37.494;2023-02-28T03:41:03;63.79;55.29;88.41;;
74214;Laerm;62576;55.694;37.494;2023-02-28T03:43:38;63.51;55.49;79.65;;
74214;Laerm;62576;55.694;37.494;2023-02-28T03:46:10;63.71;54.66;72.09;;
74214;Laerm;62576;55.694;37.494;2023-02-28T03:48:44;63.08;55.92;80.45;;
74214;Laerm;62576;55.694;37.494;2023-02-28T03:51:18;63.16;55.80;71.41;;
74214;Laerm;62576;55.694;37.494;2023-02-28T03:53:56;63.40;56.54;76.42;;
74214;Laerm;62576;55.694;37.494;2023-02-28T03:56:31;64.40;57.12;78.17;;
74214;Laerm;62576;55.694;37.494;2023-02-28T03:59:06;64.32;56.84;81.61;;
74214;Laerm;62576;55.694;37.494;2023-02-28T04:01:40;63.47;56.00;71.69;;
74214;Laerm;62576;55.694;37.494;2023-02-28T04:04:14;64.54;56.62;76.55;;
74214;Laerm;62576;55.694;37.494;2023-02-28T04:06:45;63.24;56.14;74.22;;
74214;Laerm;62576;55.694;37.494;2023-02-28T04:09:16;63.03;55.43;68.62;;
74214;Laerm;62576;55.694;37.494;2023-02-28T04:11:50;64.36;56.12;70.48;;
74214;Laerm;62576;55.694;37.494;2023-02-28T04:14:21;64.34;57.08;77.97;;
74214;Laerm;62576;55.694;37.494;2023-02-28T04:16:51;65.68;55.37;71.36;;
74214;Laerm;62576;55.694;37.494;2023-02-28T04:19:22;66.54;56.71;73.00;;
74214;Laerm;62576;55.694;37.494;2023-02-28T04:21:52;65.66;57.25;76.54;;
74214;Laerm;62576;55.694;37.494;2023-02-28T04:24:27;65.10;56.84;78.22;;
74214;Laerm;62576;55.694;37.494;2023-02-28T04:26:57;65.71;57.10;79.51;;
74214;Laerm;62576;55.694;37.494;2023-02-28T04:29:29;67.02;57.55;77.88;;
74214;Laerm;62576;55.694;37.494;2023-02-28T04:32:00;67.85;56.46;87.81;;
74214;Laerm;62576;55.694;37.494;2023-02-28T04:34:29;66.90;57.03;81.62;;
74214;Laerm;62576;55.694;37.494;2023-02-28T04:37:01;65.78;58.67;79.62;;
74214;Laerm;62576;55.694;37.494;2023-02-28T04:39:34;66.51;57.91;87.55;;
74214;Laerm;62576;55.694;37.494;2023-02-28T04:42:03;66.15;58.75;76.73;;
74214;Laerm;62576;55.694;37.494;2023-02-28T04:44:34;66.15;57.79;80.45;;
74214;Laerm;62576;55.694;37.494;2023-02-28T04:47:04;65.65;57.98;74.93;;
74214;Laerm;62576;55.694;37.494;2023-02-28T04:49:35;66.27;59.10;80.30;;
74214;Laerm;62576;55.694;37.494;2023-02-28T04:52:05;66.31;58.35;73.98;;
74214;Laerm;62576;55.694;37.494;2023-02-28T04:54:38;67.19;58.28;85.13;;
74214;Laerm;62576;55.694;37.494;2023-02-28T04:57:08;65.76;58.16;76.87;;
74214;Laerm;62576;55.694;37.494;2023-02-28T04:59:39;66.33;61.35;72.81;;
74214;Laerm;62576;55.694;37.494;2023-02-28T05:02:09;66.99;59.25;81.92;;
74214;Laerm;62576;55.694;37.494;2023-02-28T05:04:42;66.80;59.75;80.98;;
74214;Laerm;62576;55.694;37.494;2023-02-28T05:07:12;66.74;59.05;88.02;;
74214;Laerm;62576;55.694;37.494;2023-02-28T05:09:44;66.03;57.69;74.20;;
74214;Laerm;62576;55.694;37.494;2023-02-28T05:12:14;67.49;57.56;84.25;;
74214;Laerm;62576;55.694;37.494;2023-02-28T05:14:44;66.59;58.96;81.23;;
74214;Laerm;62576;55.694;37.494;2023-02-28T05:17:15;67.07;60.13;78.38;;
74214;Laerm;62576;55.694;37.494;2023-02-28T05:19:46;67.10;59.13;85.19;;
74214;Laerm;62576;55.694;37.494;2023-02-28T05:22:16;66.57;58.66;80.99;;
74214;Laerm;62576;55.694;37.494;2023-02-28T05:24:47;67.37;60.13;84.76;;
74214;Laerm;62576;55.694;37.494;2023-02-28T05:27:18;65.74;59.34;75.06;;
74214;Laerm;62576;55.694;37.494;2023-02-28T05:29:48;68.56;60.56;85.78;;
74214;Laerm;62576;55.694;37.494;2023-02-28T05:32:19;66.51;58.50;71.67;;
74214;Laerm;62576;55.694;37.494;2023-02-28T05:34:49;67.83;58.47;81.06;;
74214;Laerm;62576;55.694;37.494;2023-02-28T05:37:22;67.30;59.27;80.03;;
74214;Laerm;62576;55.694;37.494;2023-02-28T05:39:54;66.97;59.19;84.59;;
74214;Laerm;62576;55.694;37.494;2023-02-28T05:42:24;66.28;58.89;80.56;;
74214;Laerm;62576;55.694;37.494;2023-02-28T05:44:54;66.62;59.61;79.46;;
74214;Laerm;62576;55.694;37.494;2023-02-28T05:47:24;66.96;59.09;82.87;;
74214;Laerm;62576;55.694;37.494;2023-02-28T05:49:54;66.33;58.94;76.37;;
74214;Laerm;62576;55.694;37.494;2023-02-28T05:52:24;67.11;58.24;91.52;;
74214;Laerm;62576;55.694;37.494;2023-02-28T05:54:56;66.70;59.99;85.55;;
74214;Laerm;62576;55.694;37.494;2023-02-28T05:57:26;65.85;59.89;77.74;;
74214;Laerm;62576;55.694;37.494;2023-02-28T05:59:56;67.39;59.51;88.37;;
74214;Laerm;62576;55.694;37.494;2023-02-28T06:02:26;67.04;60.45;77.49;;
74214;Laerm;62576;55.694;37.494;2023-02-28T06:04:56;66.86;60.28;76.15;;
74214;Laerm;62576;55.694;37.494;2023-02-28T06:07:26;66.35;57.37;77.89;;
74214;Laerm;62576;55.694;37.494;2023-02-28T06:09:58;68.49;59.62;87.11;;
74214;Laerm;62576;55.694;37.494;2023-02-28T06:12:28;66.38;58.97;71.98;;
74214;Laerm;62576;55.694;37.494;2023-02-28T06:14:59;65.91;57.56;83.10;;
74214;Laerm;62576;55.694;37.494;2023-02-28T06:17:29;67.94;60.71;88.06;;
74214;Laerm;62576;55.694;37.494;2023-02-28T06:19:59;66.99;57.93;75.89;;
74214;Laerm;62576;55.694;37.494;2023-02-28T06:22:30;66.95;59.17;88.46;;
74214;Laerm;62576;55.694;37.494;2023-02-28T06:25:02;66.10;59.06;78.85;;
74214;Laerm;62576;55.694;37.494;2023-02-28T06:27:38;67.21;59.61;86.45;;
74214;Laerm;62576;55.694;37.494;2023-02-28T06:30:10;69.15;59.13;90.69;;
74214;Laerm;62576;55.694;37.494;2023-02-28T06:32:41;65.90;58.43;87.34;;
74214;Laerm;62576;55.694;37.494;2023-02-28T06:35:11;66.95;57.96;80.92;;
74214;Laerm;62576;55.694;37.494;2023-02-28T06:37:42;70.56;58.40;95.41;;
74214;Laerm;62576;55.694;37.494;2023-02-28T06:40:15;69.09;58.29;92.45;;
74214;Laerm;62576;55.694;37.494;2023-02-28T06:42:45;68.03;57.50;86.81;;
74214;Laerm;62576;55.694;37.494;2023-02-28T06:45:15;68.58;58.94;85.25;;
74214;Laerm;62576;55.694;37.494;2023-02-28T06:47:45;71.55;59.41;95.87;;
74214;Laerm;62576;55.694;37.494;2023-02-28T06:50:17;69.56;58.39;88.18;;
74214;Laerm;62576;55.694;37.494;2023-02-28T06:52:48;68.74;60.38;90.27;;
74214;Laerm;62576;55.694;37.494;2023-02-28T06:55:24;71.80;61.08;95.01;;
74214;Laerm;62576;55.694;37.494;2023-02-28T06:57:56;69.54;60.56;91.77;;
74214;Laerm;62576;55.694;37.494;2023-02-28T07:00:26;66.05;59.04;80.22;;
74214;Laerm;62576;55.694;37.494;2023-02-28T07:02:57;66.53;60.20;80.33;;
74214;Laerm;62576;55.694;37.494;2023-02-28T07:05:27;68.10;58.23;88.03;;
74214;Laerm;62576;55.694;37.494;2023-02-28T07:07:57;68.64;59.63;82.79;;
74214;Laerm;62576;55.694;37.494;2023-02-28T07:10:29;70.72;59.20;89.28;;
74214;Laerm;62576;55.694;37.494;2023-02-28T07:12:59;74.42;59.62;96.95;;
74214;Laerm;62576;55.694;37.494;2023-02-28T07:15:29;68.50;58.50;89.71;;
74214;Laerm;62576;55.694;37.494;2023-02-28T07:18:00;69.69;58.56;93.89;;
74214;Laerm;62576;55.694;37.494;2023-02-28T07:20:30;68.17;58.11;88.26;;
74214;Laerm;62576;55.694;37.494;2023-02-28T07:23:00;72.53;58.85;99.56;;
74214;Laerm;62576;55.694;37.494;2023-02-28T07:25:32;66.71;59.18;79.49;;
74214;Laerm;62576;55.694;37.494;2023-02-28T07:28:04;70.15;59.92;92.23;;
74214;Laerm;62576;55.694;37.494;2023-02-28T07:30:34;71.60;59.25;94.67;;
74214;Laerm;62576;55.694;37.494;2023-02-28T07:33:05;68.51;60.41;91.14;;
74214;Laerm;62576;55.694;37.494;2023-02-28T07:35:35;68.61;58.75;85.19;;
74214;Laerm;62576;55.694;37.494;2023-02-28T07:38:05;70.92;61.09;90.39;;
74214;Laerm;62576;55.694;37.494;2023-02-28T07:40:38;68.36;58.52;85.69;;
74214;Laerm;62576;55.694;37.494;2023-02-28T07:43:08;68.21;60.86;89.89;;
74214;Laerm;62576;55.694;37.494;2023-02-28T07:45:39;70.21;59.53;91.24;;
74214;Laerm;62576;55.694;37.494;2023-02-28T07:48:10;69.30;57.38;91.29;;
74214;Laerm;62576;55.694;37.494;2023-02-28T07:50:37;69.10;59.32;89.50;;
74214;Laerm;62576;55.694;37.494;2023-02-28T07:53:07;71.75;58.77;93.60;;
74214;Laerm;62576;55.694;37.494;2023-02-28T07:55:38;71.24;60.03;92.20;;
74214;Laerm;62576;55.694;37.494;2023-02-28T07:58:09;72.54;60.33;93.08;;
74214;Laerm;62576;55.694;37.494;2023-02-28T08:00:39;69.09;58.28;87.55;;
74214;Laerm;62576;55.694;37.494;2023-02-28T08:03:11;75.25;58.43;94.35;;
74214;Laerm;62576;55.694;37.494;2023-02-28T08:05:42;68.32;58.39;86.94;;
74214;Laerm;62576;55.694;37.494;2023-02-28T08:08:12;73.22;60.00;94.39;;
74214;Laerm;62576;55.694;37.494;2023-02-28T08:10:44;74.12;59.89;99.64;;
74214;Laerm;62576;55.694;37.494;2023-02-28T08:13:14;69.01;59.33;87.67;;
74214;Laerm;62576;55.694;37.494;2023-02-28T08:15:44;69.96;59.56;88.75;;
74214;Laerm;62576;55.694;37.494;2023-02-28T08:18:18;73.46;58.79;95.62;;
74214;Laerm;62576;55.694;37.494;2023-02-28T08:20:48;67.19;59.68;86.20;;
74214;Laerm;62576;55.694;37.494;2023-02-28T08:23:19;71.71;62.66;94.13;;
74214;Laerm;62576;55.694;37.494;2023-02-28T08:25:58;67.79;61.96;80.15;;
74214;Laerm;62576;55.694;37.494;2023-02-28T08:28:28;68.65;58.46;94.68;;
74214;Laerm;62576;55.694;37.494;2023-02-28T08:30:59;68.24;58.79;88.59;;
74214;Laerm;62576;55.694;37.494;2023-02-28T08:33:29;71.56;58.36;94.39;;
74214;Laerm;62576;55.694;37.494;2023-02-28T08:36:00;68.80;59.34;90.98;;
74214;Laerm;62576;55.694;37.494;2023-02-28T08:38:30;67.45;59.71;84.74;;
74214;Laerm;62576;55.694;37.494;2023-02-28T08:41:04;68.12;58.00;81.99;;
74214;Laerm;62576;55.694;37.494;2023-02-28T08:43:36;70.48;57.68;92.16;;
74214;Laerm;62576;55.694;37.494;2023-02-28T08:46:07;71.57;58.06;93.57;;
74214;Laerm;62576;55.694;37.494;2023-02-28T08:48:37;69.39;59.17;87.38;;
74214;Laerm;62576;55.694;37.494;2023-02-28T08:51:14;67.94;60.02;86.49;;
74214;Laerm;62576;55.694;37.494;2023-02-28T08:53:47;69.42;59.01;84.86;;
74214;Laerm;62576;55.694;37.494;2023-02-28T08:56:20;71.34;59.58;93.87;;
74214;Laerm;62576;55.694;37.494;2023-02-28T08:58:50;66.44;58.78;73.45;;
74214;Laerm;62576;55.694;37.494;2023-02-28T09:01:25;67.13;57.79;76.74;;
74214;Laerm;62576;55.694;37.494;2023-02-28T09:03:57;67.75;57.92;80.61;;
74214;Laerm;62576;55.694;37.494;2023-02-28T09:06:28;65.85;58.45;81.99;;
74214;Laerm;62576;55.694;37.494;2023-02-28T09:08:58;67.36;61.01;84.04;;
74214;Laerm;62576;55.694;37.494;2023-02-28T09:11:32;67.64;60.44;81.21;;
74214;Laerm;62576;55.694;37.494;2023-02-28T09:14:03;71.31;59.39;95.31;;
74214;Laerm;62576;55.694;37.494;2023-02-28T09:16:34;72.12;58.39;91.20;;
74214;Laerm;62576;55.694;37.494;2023-02-28T09:19:05;69.69;58.47;89.36;;
74214;Laerm;62576;55.694;37.494;2023-02-28T09:21:36;70.56;59.56;94.72;;
74214;Laerm;62576;55.694;37.494;2023-02-28T09:24:07;75.53;62.26;97.74;;
74214;Laerm;62576;55.694;37.494;2023-02-28T09:26:41;71.91;60.75;95.07;;
74214;Laerm;62576;55.694;37.494;2023-02-28T09:29:11;67.54;60.27;85.29;;
74214;Laerm;62576;55.694;37.494;2023-02-28T09:31:41;70.76;61.73;91.28;;
74214;Laerm;62576;55.694;37.494;2023-02-28T09:34:12;67.49;59.67;86.85;;
74214;Laerm;62576;55.694;37.494;2023-02-28T09:36:42;66.95;58.74;79.19;;
74214;Laerm;62576;55.694;37.494;2023-02-28T09:39:13;74.94;59.93;97.10;;
74214;Laerm;62576;55.694;37.494;2023-02-28T09:41:47;73.99;61.67;93.43;;
74214;Laerm;62576;55.694;37.494;2023-02-28T09:44:29;68.45;60.65;86.17;;
74214;Laerm;62576;55.694;37.494;2023-02-28T09:47:32;67.29;59.37;82.76;;
74214;Laerm;62576;55.694;37.494;2023-02-28T09:50:15;72.14;58.44;91.05;;
74214;Laerm;62576;55.694;37.494;2023-02-28T09:53:16;73.45;57.09;94.53;;
74214;Laerm;62576;55.694;37.494;2023-02-28T09:56:14;73.89;58.15;96.81;;
74214;Laerm;62576;55.694;37.494;2023-02-28T10:02:35;66.26;58.36;85.37;;
74214;Laerm;62576;55.694;37.494;2023-02-28T10:05:12;64.96;58.63;71.19;;
74214;Laerm;62576;55.694;37.494;2023-02-28T10:08:39;66.98;58.26;82.79;;
74214;Laerm;62576;55.694;37.494;2023-02-28T10:11:28;75.31;58.44;99.02;;
74214;Laerm;62576;55.694;37.494;2023-02-28T10:14:20;70.28;60.74;89.50;;
74214;Laerm;62576;55.694;37.494;2023-02-28T10:16:53;70.45;59.47;91.09;;
74214;Laerm;62576;55.694;37.494;2023-02-28T10:19:31;70.77;59.29;91.51;;
74214;Laerm;62576;55.694;37.494;2023-02-28T10:22:10;70.40;58.79;91.59;;
74214;Laerm;62576;55.694;37.494;2023-02-28T10:24:45;69.58;59.28;89.05;;
74214;Laerm;62576;55.694;37.494;2023-02-28T10:27:20;68.40;60.70;89.96;;
74214;Laerm;62576;55.694;37.494;2023-02-28T10:29:53;70.62;58.03;91.81;;
74214;Laerm;62576;55.694;37.494;2023-02-28T10:32:25;71.03;61.33;93.94;;
74214;Laerm;62576;55.694;37.494;2023-02-28T10:35:01;77.27;62.24;99.27;;
74214;Laerm;62576;55.694;37.494;2023-02-28T10:37:37;70.97;61.47;89.33;;
74214;Laerm;62576;55.694;37.494;2023-02-28T10:40:26;70.17;60.74;91.02;;
74214;Laerm;62576;55.694;37.494;2023-02-28T10:43:00;72.37;58.64;98.82;;
74214;Laerm;62576;55.694;37.494;2023-02-28T10:45:32;75.68;59.54;94.57;;
74214;Laerm;62576;55.694;37.494;2023-02-28T10:48:05;71.96;59.44;95.73;;
74214;Laerm;62576;55.694;37.494;2023-02-28T10:50:39;73.21;59.48;94.77;;
74214;Laerm;62576;55.694;37.494;2023-02-28T10:53:22;71.63;60.44;92.07;;
74214;Laerm;62576;55.694;37.494;2023-02-28T10:55:59;68.35;59.23;90.14;;
74214;Laerm;62576;55.694;37.494;2023-02-28T10:58:40;68.99;61.25;89.18;;
74214;Laerm;62576;55.694;37.494;2023-02-28T11:01:14;74.95;60.44;96.47;;
74214;Laerm;62576;55.694;37.494;2023-02-28T11:03:45;68.79;59.96;89.50;;
74214;Laerm;62576;55.694;37.494;2023-02-28T11:06:19;75.54;60.82;93.15;;
74214;Laerm;62576;55.694;37.494;2023-02-28T11:08:52;70.26;58.76;93.65;;
74214;Laerm;62576;55.694;37.494;2023-02-28T11:11:25;67.74;60.21;84.19;;
74214;Laerm;62576;55.694;37.494;2023-02-28T11:13:59;74.66;60.24;95.55;;
74214;Laerm;62576;55.694;37.494;2023-02-28T11:16:34;79.44;60.78;100.85;;
74214;Laerm;62576;55.694;37.494;2023-02-28T11:19:17;73.70;61.39;92.14;;
74214;Laerm;62576;55.694;37.494;2023-02-28T11:21:55;68.84;58.41;86.50;;
74214;Laerm;62576;55.694;37.494;2023-02-28T11:24:26;71.76;61.01;94.25;;
74214;Laerm;62576;55.694;37.494;2023-02-28T11:26:59;75.80;61.55;97.01;;
74214;Laerm;62576;55.694;37.494;2023-02-28T11:29:31;75.54;60.83;95.50;;
74214;Laerm;62576;55.694;37.494;2023-02-28T11:32:16;70.22;60.98;89.32;;
74214;Laerm;62576;55.694;37.494;2023-02-28T11:35:00;72.53;61.02;92.41;;
74214;Laerm;62576;55.694;37.494;2023-02-28T11:37:34;69.76;61.35;91.61;;
74214;Laerm;62576;55.694;37.494;2023-02-28T11:40:12;77.54;62.21;97.93;;
74214;Laerm;62576;55.694;37.494;2023-02-28T11:42:56;72.15;59.64;92.83;;
74214;Laerm;62576;55.694;37.494;2023-02-28T11:45:39;72.37;61.97;96.39;;
74214;Laerm;62576;55.694;37.494;2023-02-28T11:48:20;67.15;60.33;85.98;;
74214;Laerm;62576;55.694;37.494;2023-02-28T11:50:58;70.36;59.72;98.05;;
74214;Laerm;62576;55.694;37.494;2023-02-28T11:56:42;68.57;61.82;88.14;;
74214;Laerm;62576;55.694;37.494;2023-02-28T11:59:41;66.26;60.56;83.24;;
74214;Laerm;62576;55.694;37.494;2023-02-28T12:02:25;70.15;60.65;89.10;;
74214;Laerm;62576;55.694;37.494;2023-02-28T12:05:15;68.67;61.65;87.20;;
74214;Laerm;62576;55.694;37.494;2023-02-28T12:08:00;67.20;59.57;87.30;;
74214;Laerm;62576;55.694;37.494;2023-02-28T12:10:41;68.18;60.40;89.03;;
74214;Laerm;62576;55.694;37.494;2023-02-28T12:13:21;68.96;61.60;86.02;;
74214;Laerm;62576;55.694;37.494;2023-02-28T12:16:17;67.86;60.41;81.94;;
74214;Laerm;62576;55.694;37.494;2023-02-28T12:19:05;66.43;59.48;84.17;;
74214;Laerm;62576;55.694;37.494;2023-02-28T12:21:54;66.71;61.35;74.90;;
74214;Laerm;62576;55.694;37.494;2023-02-28T12:24:48;67.25;58.68;79.51;;
74214;Laerm;62576;55.694;37.494;2023-02-28T12:27:28;68.34;59.97;87.34;;
74214;Laerm;62576;55.694;37.494;2023-02-28T12:30:03;66.22;59.07;78.84;;
74214;Laerm;62576;55.694;37.494;2023-02-28T12:32:39;68.22;60.33;90.84;;
74214;Laerm;62576;55.694;37.494;2023-02-28T12:35:14;67.80;60.40;85.51;;
74214;Laerm;62576;55.694;37.494;2023-02-28T12:37:51;66.67;58.95;75.69;;
74214;Laerm;62576;55.694;37.494;2023-02-28T12:40:31;68.85;60.84;88.79;;
74214;Laerm;62576;55.694;37.494;2023-02-28T12:43:08;66.95;59.49;77.93;;
74214;Laerm;62576;55.694;37.494;2023-02-28T12:45:42;67.27;59.08;79.81;;
74214;Laerm;62576;55.694;37.494;2023-02-28T12:48:15;67.64;60.50;80.36;;
74214;Laerm;62576;55.694;37.494;2023-02-28T12:50:48;67.70;59.14;88.63;;
74214;Laerm;62576;55.694;37.494;2023-02-28T12:53:25;66.75;60.29;81.56;;
74214;Laerm;62576;55.694;37.494;2023-02-28T12:56:09;70.38;60.53;95.03;;
74214;Laerm;62576;55.694;37.494;2023-02-28T12:58:47;66.79;60.06;72.66;;
74214;Laerm;62576;55.694;37.494;2023-02-28T13:01:42;68.58;59.42;89.74;;
74214;Laerm;62576;55.694;37.494;2023-02-28T13:07:35;66.98;59.73;81.95;;
74214;Laerm;62576;55.694;37.494;2023-02-28T13:10:11;68.41;60.88;92.24;;
74214;Laerm;62576;55.694;37.494;2023-02-28T13:12:48;69.23;61.96;86.70;;
74214;Laerm;62576;55.694;37.494;2023-02-28T13:15:23;66.79;61.41;81.75;;
74214;Laerm;62576;55.694;37.494;2023-02-28T13:17:56;67.16;61.67;78.05;;
74214;Laerm;62576;55.694;37.494;2023-02-28T13:20:31;67.98;63.06;78.59;;
74214;Laerm;62576;55.694;37.494;2023-02-28T13:23:03;68.48;61.64;86.76;;
74214;Laerm;62576;55.694;37.494;2023-02-28T13:25:52;70.78;60.59;90.56;;
74214;Laerm;62576;55.694;37.494;2023-02-28T13:34:49;70.20;61.72;90.80;;
74214;Laerm;62576;55.694;37.494;2023-02-28T13:37:43;67.68;61.38;80.68;;
74214;Laerm;62576;55.694;37.494;2023-02-28T13:40:30;69.09;60.58;87.58;;
74214;Laerm;62576;55.694;37.494;2023-02-28T13:43:08;68.18;62.62;88.01;;
74214;Laerm;62576;55.694;37.494;2023-02-28T13:46:10;66.93;61.94;79.34;;
74214;Laerm;62576;55.694;37.494;2023-02-28T13:48:41;66.58;61.44;78.25;;
74214;Laerm;62576;55.694;37.494;2023-02-28T13:54:37;68.42;61.13;83.30;;
74214;Laerm;62576;55.694;37.494;2023-02-28T13:57:22;67.58;63.16;79.14;;
74214;Laerm;62576;55.694;37.494;2023-02-28T14:00:06;68.91;60.94;89.31;;
74214;Laerm;62576;55.694;37.494;2023-02-28T14:03:01;68.50;62.63;87.10;;
74214;Laerm;62576;55.694;37.494;2023-02-28T14:05:34;67.42;61.39;89.04;;
74214;Laerm;62576;55.694;37.494;2023-02-28T14:08:08;71.64;63.26;92.33;;
74214;Laerm;62576;55.694;37.494;2023-02-28T14:10:44;68.03;61.17;85.98;;
74214;Laerm;62576;55.694;37.494;2023-02-28T14:13:39;68.29;62.27;86.19;;
74214;Laerm;62576;55.694;37.494;2023-02-28T14:16:13;68.68;62.58;86.22;;
74214;Laerm;62576;55.694;37.494;2023-02-28T14:18:50;68.22;61.01;87.41;;
74214;Laerm;62576;55.694;37.494;2023-02-28T14:21:23;67.54;61.25;82.06;;
74214;Laerm;62576;55.694;37.494;2023-02-28T14:24:23;68.11;58.67;85.50;;
74214;Laerm;62576;55.694;37.494;2023-02-28T14:30:24;71.20;60.33;90.73;;
74214;Laerm;62576;55.694;37.494;2023-02-28T14:33:11;67.01;59.40;87.69;;
74214;Laerm;62576;55.694;37.494;2023-02-28T14:36:08;70.72;60.60;91.44;;
74214;Laerm;62576;55.694;37.494;2023-02-28T14:38:45;68.25;61.39;83.35;;
74214;Laerm;62576;55.694;37.494;2023-02-28T14:41:22;67.31;60.01;86.92;;